Time;durP1;ratioP1;P1;durP2;ratioP2;P2;SDS_P1;SDS_P2;PMS_P1;PMS_P2;Temp;Humidity;BMP_temperature;BMP_pressure;BME280_temperature;BME280_humidity;BME280_pressure;Samples;Min_cycle;Max_cycle;Signal;HPM_P1;HPM_P2
2022/02/18 00:02:03;;;;;;;3.38;1.20;;;19.00;63.60;;;;;;5034325;28;20029;-72
2022/02/18 00:04:29;;;;;;;1.25;0.73;;;19.00;63.60;;;;;;5034454;28;20021;-72
2022/02/18 00:06:54;;;;;;;1.58;0.95;;;19.00;63.70;;;;;;5034603;28;20475;-72
2022/02/18 00:09:20;;;;;;;2.45;1.00;;;19.00;63.70;;;;;;5016557;28;20021;-72
2022/02/18 00:11:46;;;;;;;1.30;1.00;;;19.00;63.70;;;;;;5016813;28;20037;-72
2022/02/18 00:14:11;;;;;;;1.35;1.02;;;19.00;63.70;;;;;;5034439;28;20112;-72
2022/02/18 00:16:37;;;;;;;1.58;0.88;;;18.90;63.70;;;;;;5033671;28;20041;-72
2022/02/18 00:19:03;;;;;;;1.58;1.00;;;19.00;63.70;;;;;;5016767;28;20072;-72
2022/02/18 00:21:28;;;;;;;2.35;0.88;;;18.90;63.70;;;;;;5034102;28;20024;-72
2022/02/18 00:23:54;;;;;;;1.13;1.00;;;19.00;63.80;;;;;;5034354;28;20563;-72
2022/02/18 00:26:20;;;;;;;1.77;0.80;;;18.90;63.70;;;;;;5034124;28;20051;-72
2022/02/18 00:28:46;;;;;;;1.67;0.88;;;18.90;63.70;;;;;;5034189;28;20064;-72
2022/02/18 00:31:12;;;;;;;1.15;0.70;;;18.90;63.80;;;;;;5016300;28;20060;-72
2022/02/18 00:33:37;;;;;;;1.50;0.75;;;18.90;63.80;;;;;;5033891;28;20476;-72
2022/02/18 00:36:03;;;;;;;1.25;0.93;;;18.90;63.80;;;;;;5016404;28;20030;-72
2022/02/18 00:38:29;;;;;;;1.30;0.68;;;18.90;63.90;;;;;;5033702;28;20032;-72
2022/02/18 00:40:54;;;;;;;1.52;0.90;;;18.90;63.90;;;;;;5033977;28;20022;-72
2022/02/18 00:43:20;;;;;;;1.13;0.77;;;18.90;63.90;;;;;;5033952;28;20032;-72
2022/02/18 00:45:48;;;;;;;1.23;0.73;;;18.90;63.90;;;;;;5033585;28;20040;-72
2022/02/18 00:48:13;;;;;;;1.58;1.00;;;18.90;63.90;;;;;;5033607;28;20032;-72
2022/02/18 00:50:39;;;;;;;1.55;0.90;;;18.90;64.00;;;;;;5033667;28;20025;-72
2022/02/18 00:53:06;;;;;;;1.45;0.70;;;18.90;64.00;;;;;;5015656;28;20041;-72
2022/02/18 00:55:32;;;;;;;1.83;0.80;;;18.90;64.00;;;;;;5032636;28;20056;-72
2022/02/18 00:57:57;;;;;;;1.45;0.70;;;18.90;64.00;;;;;;5033786;28;20064;-72
2022/02/18 01:00:23;;;;;;;1.75;0.63;;;18.90;64.00;;;;;;5015561;28;20033;-72
2022/02/18 01:02:48;;;;;;;1.35;0.80;;;18.90;64.00;;;;;;5033358;28;20032;-72
2022/02/18 01:05:14;;;;;;;0.88;0.70;;;18.90;64.00;;;;;;5033527;28;20483;-72
2022/02/18 01:07:40;;;;;;;1.20;0.70;;;18.90;64.00;;;;;;5033379;28;20033;-72
2022/02/18 01:10:07;;;;;;;2.00;1.00;;;18.90;64.10;;;;;;5033375;28;20029;-72
2022/02/18 01:12:32;;;;;;;1.50;0.65;;;18.90;64.10;;;;;;5015577;28;20480;-72
2022/02/18 01:14:58;;;;;;;1.60;0.93;;;18.90;64.20;;;;;;5032894;28;20101;-72
2022/02/18 01:17:24;;;;;;;1.38;0.70;;;18.90;64.20;;;;;;4982709;28;20488;-72
2022/02/18 01:19:49;;;;;;;2.05;0.90;;;18.90;64.20;;;;;;5013323;28;20069;-72
2022/02/18 01:22:15;;;;;;;1.25;0.73;;;18.80;64.10;;;;;;5013329;28;20408;-72
2022/02/18 01:24:40;;;;;;;2.45;1.10;;;18.90;64.20;;;;;;4995786;28;20026;-72
2022/02/18 01:27:06;;;;;;;1.80;0.80;;;18.90;64.20;;;;;;5013444;28;20038;-72
2022/02/18 01:29:34;;;;;;;2.28;0.93;;;18.80;64.20;;;;;;4995281;28;20563;-72
2022/02/18 01:32:00;;;;;;;1.33;0.75;;;18.90;64.20;;;;;;5013318;28;20021;-72
2022/02/18 01:34:25;;;;;;;1.60;0.90;;;18.90;64.20;;;;;;5013194;28;20022;-72
2022/02/18 01:36:51;;;;;;;2.72;1.00;;;18.80;64.20;;;;;;5013011;28;20030;-72
2022/02/18 01:39:18;;;;;;;1.00;0.60;;;18.80;64.20;;;;;;5013154;28;20400;-72
2022/02/18 01:41:43;;;;;;;1.33;0.70;;;18.80;64.30;;;;;;5012987;28;20458;-72
2022/02/18 01:44:09;;;;;;;2.95;0.82;;;18.80;64.30;;;;;;4995277;28;20077;-72
2022/02/18 01:46:34;;;;;;;1.60;0.80;;;18.80;64.30;;;;;;4979591;28;20084;-72
2022/02/18 01:49:00;;;;;;;0.77;0.60;;;18.80;64.30;;;;;;5012808;28;20068;-72
2022/02/18 01:51:26;;;;;;;3.38;0.70;;;18.80;64.40;;;;;;4995506;28;20030;-72
2022/02/18 01:53:52;;;;;;;2.13;0.82;;;18.80;64.40;;;;;;5013070;28;20116;-72
2022/02/18 01:56:19;;;;;;;2.63;0.85;;;18.80;64.50;;;;;;5032647;28;20026;-72
2022/02/18 01:58:44;;;;;;;1.63;0.70;;;18.80;64.50;;;;;;5032036;28;20022;-72
2022/02/18 02:01:10;;;;;;;2.08;0.85;;;18.80;64.50;;;;;;5015126;28;20029;-72
2022/02/18 02:03:36;;;;;;;6.75;0.77;;;18.80;64.50;;;;;;5015107;28;20025;-72
2022/02/18 02:06:03;;;;;;;1.92;0.80;;;18.80;64.50;;;;;;5014679;28;20029;-72
2022/02/18 02:08:28;;;;;;;1.23;0.60;;;18.80;64.50;;;;;;5014576;28;20036;-72
2022/02/18 02:10:55;;;;;;;1.30;1.02;;;18.80;64.50;;;;;;5032493;28;20033;-72
2022/02/18 02:13:35;;;;;;;1.40;0.90;;;18.80;64.50;;;;;;5014615;28;20488;-72
2022/02/18 02:16:01;;;;;;;1.27;0.70;;;18.80;64.50;;;;;;5014738;28;20373;-72
2022/02/18 02:18:26;;;;;;;2.33;0.82;;;18.70;64.50;;;;;;5014442;28;20056;-72
2022/02/18 02:20:52;;;;;;;1.45;0.70;;;18.70;64.50;;;;;;5032223;28;20026;-72
2022/02/18 02:23:18;;;;;;;1.23;0.57;;;18.70;64.50;;;;;;5032294;28;20097;-72
2022/02/18 02:25:43;;;;;;;6.28;0.80;;;18.80;64.60;;;;;;5014493;28;20071;-72
2022/02/18 02:28:09;;;;;;;0.90;0.60;;;18.70;64.50;;;;;;5031999;28;20025;-72
2022/02/18 02:30:35;;;;;;;0.90;0.50;;;18.70;64.60;;;;;;5032120;28;20391;-72
2022/02/18 02:33:00;;;;;;;1.17;0.60;;;18.70;64.70;;;;;;5032118;28;20056;-72
2022/02/18 02:35:26;;;;;;;0.65;0.57;;;18.70;64.60;;;;;;5032001;28;20064;-72
2022/02/18 02:37:51;;;;;;;1.35;0.57;;;18.70;64.60;;;;;;5032056;28;20017;-72
2022/02/18 02:40:19;;;;;;;1.65;0.82;;;18.70;64.70;;;;;;5032190;28;20376;-73
2022/02/18 02:42:45;;;;;;;3.88;0.70;;;18.70;64.70;;;;;;5031589;28;20024;-72
2022/02/18 02:45:11;;;;;;;1.42;0.50;;;18.70;64.70;;;;;;5014468;28;20515;-72
2022/02/18 02:47:41;;;;;;;0.88;0.50;;;18.70;64.70;;;;;;5014403;28;20093;-72
2022/02/18 02:50:07;;;;;;;1.55;0.77;;;18.70;64.70;;;;;;5014336;28;20029;-73
2022/02/18 02:52:33;;;;;;;0.70;0.50;;;18.70;64.80;;;;;;5031947;28;20131;-72
2022/02/18 02:54:59;;;;;;;1.33;0.70;;;18.70;65.10;;;;;;5031990;28;20376;-72
2022/02/18 02:57:24;;;;;;;1.58;0.80;;;18.70;64.80;;;;;;5031584;28;20018;-72
2022/02/18 02:59:50;;;;;;;1.45;0.80;;;18.70;64.80;;;;;;5031950;28;20025;-72
2022/02/18 03:02:15;;;;;;;1.08;0.70;;;18.70;64.80;;;;;;5032020;28;20475;-72
2022/02/18 03:04:41;;;;;;;0.55;0.55;;;18.70;64.80;;;;;;5014201;28;20051;-73
2022/02/18 03:07:07;;;;;;;2.10;0.47;;;18.70;64.80;;;;;;5031860;28;20033;-72
2022/02/18 03:09:32;;;;;;;1.90;0.65;;;18.70;64.90;;;;;;5014204;28;20033;-72
2022/02/18 03:11:58;;;;;;;0.80;0.50;;;18.70;64.90;;;;;;5013868;28;20399;-72
2022/02/18 03:14:25;;;;;;;1.00;0.60;;;18.70;64.90;;;;;;5031786;28;20033;-72
2022/02/18 03:16:50;;;;;;;1.00;0.50;;;18.70;64.90;;;;;;5031400;28;20041;-72
2022/02/18 03:19:16;;;;;;;1.23;0.60;;;18.60;64.90;;;;;;5035517;28;20025;-72
2022/02/18 03:21:42;;;;;;;0.85;0.60;;;18.70;64.90;;;;;;5035328;28;20451;-72
2022/02/18 03:24:07;;;;;;;0.65;0.38;;;18.70;65.00;;;;;;5035067;28;20024;-72
2022/02/18 03:26:33;;;;;;;1.08;0.50;;;18.70;65.00;;;;;;5035267;28;20495;-72
2022/02/18 03:28:59;;;;;;;0.55;0.50;;;18.60;64.90;;;;;;5017589;28;20032;-72
2022/02/18 03:31:24;;;;;;;0.90;0.52;;;18.60;65.90;;;;;;5035338;28;20029;-73
2022/02/18 03:33:50;;;;;;;2.03;0.50;;;18.70;65.00;;;;;;5035073;28;20037;-73
2022/02/18 03:36:16;;;;;;;0.50;0.50;;;18.70;65.10;;;;;;5035011;28;20468;-72
2022/02/18 03:38:41;;;;;;;0.32;0.32;;;18.60;65.00;;;;;;5000842;28;20060;-72
2022/02/18 03:41:07;;;;;;;1.38;0.32;;;18.60;65.00;;;;;;5035027;28;20093;-72
2022/02/18 03:43:33;;;;;;;2.20;0.75;;;18.60;65.00;;;;;;5035052;28;20022;-73
2022/02/18 03:45:59;;;;;;;0.75;0.50;;;18.60;65.00;;;;;;5017379;28;20072;-73
2022/02/18 03:48:24;;;;;;;0.85;0.50;;;18.60;65.30;;;;;;5017264;28;20479;-73
2022/02/18 03:50:50;;;;;;;1.20;0.60;;;18.60;65.00;;;;;;5034793;28;20034;-72
2022/02/18 03:53:15;;;;;;;0.57;0.50;;;18.60;65.00;;;;;;5034446;28;20518;-73
2022/02/18 03:55:41;;;;;;;1.95;0.65;;;18.60;65.10;;;;;;5034661;28;20038;-73
2022/02/18 03:58:07;;;;;;;0.80;0.47;;;18.60;65.10;;;;;;5034648;28;20021;-72
2022/02/18 04:00:33;;;;;;;1.10;0.60;;;18.60;65.10;;;;;;5034780;28;20111;-72
2022/02/18 04:02:58;;;;;;;0.70;0.60;;;18.60;65.10;;;;;;5034470;28;20018;-72
2022/02/18 04:05:24;;;;;;;0.73;0.40;;;18.60;65.10;;;;;;5034769;28;20049;-72
2022/02/18 04:07:49;;;;;;;0.52;0.50;;;18.60;66.10;;;;;;5034226;28;20030;-72
2022/02/18 04:10:15;;;;;;;0.82;0.63;;;18.60;65.20;;;;;;5000403;28;20368;-72
2022/02/18 04:12:41;;;;;;;0.60;0.52;;;18.60;65.20;;;;;;5034676;28;20495;-72
2022/02/18 04:15:07;;;;;;;0.40;0.40;;;18.60;65.20;;;;;;5034282;28;20065;-72
2022/02/18 04:17:33;;;;;;;1.20;0.60;;;18.60;65.20;;;;;;5016592;28;20077;-72
2022/02/18 04:19:58;;;;;;;0.68;0.32;;;18.60;65.20;;;;;;5014549;28;20058;-72
2022/02/18 04:22:24;;;;;;;1.50;0.50;;;18.60;65.20;;;;;;4980507;28;20026;-72
2022/02/18 04:24:50;;;;;;;1.45;0.35;;;18.60;65.20;;;;;;4996821;28;20022;-72
2022/02/18 04:27:16;;;;;;;0.60;0.43;;;18.60;65.20;;;;;;4997071;28;20108;-72
2022/02/18 04:29:42;;;;;;;1.20;0.50;;;18.60;65.30;;;;;;5014268;28;20030;-72
2022/02/18 04:32:07;;;;;;;0.60;0.60;;;18.60;65.30;;;;;;4980826;28;20393;-72
2022/02/18 04:34:33;;;;;;;1.77;0.70;;;18.60;65.30;;;;;;5014253;28;20026;-72
2022/02/18 04:36:59;;;;;;;0.95;0.40;;;18.60;65.30;;;;;;5013679;28;20519;-72
2022/02/18 04:39:25;;;;;;;1.40;0.40;;;18.50;65.30;;;;;;4996691;28;20374;-72
2022/02/18 04:41:50;;;;;;;1.65;0.50;;;18.50;65.30;;;;;;4996691;28;20045;-72
2022/02/18 04:44:16;;;;;;;0.60;0.50;;;18.60;65.40;;;;;;5014066;28;20476;-72
2022/02/18 04:46:43;;;;;;;0.55;0.50;;;18.50;65.30;;;;;;4996622;28;20018;-72
2022/02/18 04:49:08;;;;;;;0.98;0.50;;;18.50;65.40;;;;;;4996459;28;20026;-72
2022/02/18 04:51:37;;;;;;;1.17;0.65;;;18.60;65.40;;;;;;4996337;28;20093;-72
2022/02/18 04:54:03;;;;;;;1.50;0.47;;;18.50;65.40;;;;;;5033179;28;20112;-72
2022/02/18 04:56:29;;;;;;;1.40;0.50;;;18.50;65.40;;;;;;5033625;28;20022;-72
2022/02/18 04:58:54;;;;;;;0.65;0.30;;;18.50;66.50;;;;;;5033409;28;20022;-72
2022/02/18 05:01:20;;;;;;;0.98;0.63;;;18.50;65.40;;;;;;5033639;28;20025;-72
2022/02/18 05:03:46;;;;;;;1.55;0.60;;;18.50;65.40;;;;;;5033446;28;20029;-72
2022/02/18 05:06:12;;;;;;;0.95;0.50;;;18.50;65.40;;;;;;5033244;28;20021;-72
2022/02/18 05:08:38;;;;;;;1.83;0.50;;;18.50;65.40;;;;;;5016159;28;20535;-72
2022/02/18 05:11:03;;;;;;;0.47;0.47;;;18.50;65.40;;;;;;5033158;28;20083;-72
2022/02/18 05:13:29;;;;;;;2.38;0.60;;;18.50;65.40;;;;;;5033414;28;20030;-72
2022/02/18 05:15:55;;;;;;;0.70;0.50;;;18.50;65.40;;;;;;5028563;28;20054;-72
2022/02/18 05:18:20;;;;;;;0.70;0.32;;;18.50;65.50;;;;;;4995922;28;20050;-72
2022/02/18 05:20:47;;;;;;;0.80;0.63;;;18.50;65.50;;;;;;5013079;28;20042;-72
2022/02/18 05:23:13;;;;;;;2.47;0.40;;;18.50;65.50;;;;;;4995890;28;20377;-72
2022/02/18 05:25:39;;;;;;;1.33;0.73;;;18.50;65.50;;;;;;4995960;28;20038;-72
2022/02/18 05:28:04;;;;;;;0.85;0.47;;;18.50;65.50;;;;;;5013299;28;20022;-72
2022/02/18 05:30:31;;;;;;;0.82;0.50;;;18.50;65.50;;;;;;5013453;28;20084;-72
2022/02/18 05:32:56;;;;;;;0.50;0.50;;;18.50;65.60;;;;;;5012961;28;20054;-72
2022/02/18 05:35:22;;;;;;;0.57;0.40;;;18.50;65.50;;;;;;5012845;28;20057;-72
2022/02/18 05:37:47;;;;;;;0.77;0.35;;;18.50;65.50;;;;;;5013018;28;20064;-72
2022/02/18 05:40:14;;;;;;;0.50;0.40;;;18.50;65.60;;;;;;5012808;28;20137;-72
2022/02/18 05:42:40;;;;;;;0.98;0.40;;;18.50;65.50;;;;;;5013186;28;20029;-72
2022/02/18 05:45:07;;;;;;;1.75;0.45;;;18.50;65.60;;;;;;4979181;28;20036;-72
2022/02/18 05:47:36;;;;;;;0.47;0.43;;;18.50;65.60;;;;;;4995596;28;20392;-72
2022/02/18 05:50:09;;;;;;;0.70;0.35;;;18.50;65.70;;;;;;4995099;28;20029;-72
2022/02/18 05:52:35;;;;;;;0.85;0.47;;;18.50;65.70;;;;;;4987562;28;20056;-72
2022/02/18 05:55:02;;;;;;;1.15;0.47;;;18.50;65.60;;;;;;5032226;28;20022;-72
2022/02/18 05:57:27;;;;;;;1.05;0.45;;;18.50;65.60;;;;;;5015175;28;20550;-72
2022/02/18 05:59:53;;;;;;;1.42;0.40;;;18.50;65.60;;;;;;5032461;28;20025;-72
2022/02/18 06:02:19;;;;;;;0.73;0.38;;;18.50;65.60;;;;;;5015027;28;20028;-72
2022/02/18 06:04:44;;;;;;;1.85;0.70;;;18.40;65.60;;;;;;5032010;28;20030;-72
2022/02/18 06:07:10;;;;;;;1.42;0.60;;;18.40;65.60;;;;;;5032496;28;20022;-72
2022/02/18 06:09:36;;;;;;;1.42;0.50;;;18.40;65.60;;;;;;5032965;28;20029;-72
2022/02/18 06:12:01;;;;;;;0.93;0.32;;;18.40;65.60;;;;;;5032357;28;20049;-72
2022/02/18 06:14:27;;;;;;;0.50;0.30;;;18.40;65.60;;;;;;5014926;28;20063;-72
2022/02/18 06:16:53;;;;;;;0.32;0.32;;;18.40;65.60;;;;;;5025480;28;20520;-72
2022/02/18 06:19:18;;;;;;;1.25;0.55;;;18.40;65.70;;;;;;5020159;28;20484;-72
2022/02/18 06:21:44;;;;;;;0.40;0.40;;;18.40;65.70;;;;;;5021570;28;20430;-72
2022/02/18 06:24:10;;;;;;;0.40;0.32;;;18.40;65.70;;;;;;5021693;28;20072;-72
2022/02/18 06:26:35;;;;;;;1.55;0.50;;;18.40;65.70;;;;;;5021508;28;20080;-72
2022/02/18 06:29:01;;;;;;;1.30;0.52;;;18.50;65.80;;;;;;5021048;28;20026;-72
2022/02/18 06:31:27;;;;;;;0.30;0.22;;;18.40;65.70;;;;;;5020874;28;20065;-72
2022/02/18 06:33:52;;;;;;;0.30;0.30;;;18.40;65.70;;;;;;5020422;28;20389;-72
2022/02/18 06:36:18;;;;;;;0.47;0.17;;;18.50;65.70;;;;;;5021170;28;20029;-72
2022/02/18 06:38:44;;;;;;;0.63;0.40;;;18.50;65.70;;;;;;5021485;28;20506;-72
2022/02/18 06:41:13;;;;;;;0.60;0.30;;;18.50;65.70;;;;;;5002192;28;20472;-72
2022/02/18 06:43:39;;;;;;;0.73;0.40;;;18.50;65.70;;;;;;5006199;28;20029;-72
2022/02/18 06:46:04;;;;;;;0.73;0.32;;;18.50;65.60;;;;;;5010512;28;20040;-72
2022/02/18 06:48:30;;;;;;;1.25;0.40;;;18.50;65.50;;;;;;5018503;28;20125;-72
2022/02/18 06:50:56;;;;;;;0.52;0.35;;;18.50;65.50;;;;;;5020033;28;20041;-72
2022/02/18 06:53:21;;;;;;;0.50;0.20;;;18.50;65.50;;;;;;5006419;28;20021;-72
2022/02/18 06:55:47;;;;;;;0.57;0.40;;;18.50;65.50;;;;;;5005711;28;20056;-72
2022/02/18 06:58:12;;;;;;;1.63;0.52;;;18.50;65.40;;;;;;5006375;28;20417;-72
2022/02/18 07:00:38;;;;;;;0.85;0.22;;;18.50;65.40;;;;;;5024499;28;20026;-72
2022/02/18 07:03:04;;;;;;;0.95;0.50;;;18.60;65.50;;;;;;5006619;28;20419;-72
2022/02/18 07:05:30;;;;;;;1.92;0.70;;;18.60;65.50;;;;;;5025175;28;20026;-72
2022/02/18 07:07:55;;;;;;;0.98;0.55;;;18.60;65.40;;;;;;5023092;28;20018;-72
2022/02/18 07:10:21;;;;;;;1.60;0.65;;;18.60;65.40;;;;;;5010232;28;20091;-72
2022/02/18 07:12:47;;;;;;;2.30;0.63;;;18.60;65.40;;;;;;5022641;28;20032;-72
2022/02/18 07:15:12;;;;;;;1.05;0.70;;;18.60;65.40;;;;;;5024551;28;20996;-72
2022/02/18 07:17:39;;;;;;;2.78;0.90;;;18.60;65.30;;;;;;5006060;28;20515;-72
2022/02/18 07:20:06;;;;;;;1.23;0.50;;;18.60;65.30;;;;;;4992575;28;20033;-72
2022/02/18 07:22:36;;;;;;;1.92;0.52;;;18.60;65.30;;;;;;5008536;28;20017;-72
2022/02/18 07:25:02;;;;;;;1.20;0.50;;;18.60;65.20;;;;;;5006630;28;20032;-71
2022/02/18 07:27:28;;;;;;;1.10;0.55;;;18.60;65.20;;;;;;5021043;28;20483;-73
2022/02/18 07:29:54;;;;;;;5.95;1.17;;;18.60;65.20;;;;;;5026644;28;20029;-74
2022/02/18 07:32:24;;;;;;;8.75;2.17;;;18.70;65.30;;;;;;5015197;28;20041;-75
2022/02/18 07:34:49;;;;;;;11.98;2.22;;;18.60;65.30;;;;;;4997825;28;20045;-73
2022/02/18 07:37:15;;;;;;;8.13;2.03;;;18.70;65.40;;;;;;4997167;28;20399;-73
2022/02/18 07:39:41;;;;;;;9.45;2.75;;;18.70;65.40;;;;;;5015488;28;20029;-73
2022/02/18 07:42:07;;;;;;;6.97;2.17;;;18.70;65.30;;;;;;5015094;28;20022;-73
2022/02/18 07:44:33;;;;;;;7.97;2.13;;;18.70;65.30;;;;;;4997762;28;20022;-73
2022/02/18 07:46:58;;;;;;;9.93;2.53;;;18.70;65.30;;;;;;5014821;28;20029;-74
2022/02/18 07:49:24;;;;;;;6.78;1.90;;;18.70;65.40;;;;;;5014145;28;20392;-73
2022/02/18 07:51:50;;;;;;;5.57;1.85;;;18.80;65.40;;;;;;5017644;28;20022;-73
2022/02/18 07:54:15;;;;;;;5.88;1.75;;;18.80;65.40;;;;;;5034680;28;20048;-73
2022/02/18 07:56:41;;;;;;;5.97;2.03;;;18.80;65.30;;;;;;5034628;28;20026;-73
2022/02/18 07:59:06;;;;;;;8.30;1.85;;;18.80;65.30;;;;;;5034714;28;20029;-73
2022/02/18 08:01:32;;;;;;;7.40;1.73;;;18.80;65.30;;;;;;5013660;28;20028;-74
2022/02/18 08:03:58;;;;;;;6.68;1.83;;;18.80;65.30;;;;;;5014542;28;20365;-73
2022/02/18 08:06:23;;;;;;;5.57;1.77;;;18.80;65.30;;;;;;5014834;28;20064;-73
2022/02/18 08:08:49;;;;;;;7.63;1.73;;;18.80;65.30;;;;;;5024591;28;20025;-73
2022/02/18 08:11:16;;;;;;;5.32;1.70;;;18.80;65.20;;;;;;5034601;28;20053;-73
2022/02/18 08:13:42;;;;;;;5.38;1.55;;;18.80;65.20;;;;;;5034449;28;20029;-73
2022/02/18 08:16:08;;;;;;;5.53;1.77;;;18.80;65.20;;;;;;5016287;28;20029;-73
2022/02/18 08:18:34;;;;;;;4.25;1.80;;;18.80;65.20;;;;;;5034325;28;20514;-73
2022/02/18 08:21:00;;;;;;;5.15;1.60;;;18.80;65.20;;;;;;5034186;28;20021;-73
2022/02/18 08:23:26;;;;;;;5.50;1.60;;;18.80;65.10;;;;;;5016712;28;20383;-73
2022/02/18 08:25:51;;;;;;;4.35;1.70;;;18.80;65.20;;;;;;5024913;28;20034;-73
2022/02/18 08:28:17;;;;;;;5.15;1.77;;;18.80;65.20;;;;;;5014311;28;20026;-73
2022/02/18 08:30:44;;;;;;;5.00;1.75;;;18.80;65.10;;;;;;5014352;28;20109;-73
2022/02/18 08:33:10;;;;;;;4.50;1.50;;;18.80;65.10;;;;;;5013080;28;20487;-73
2022/02/18 08:35:35;;;;;;;5.47;1.63;;;18.80;65.10;;;;;;5013162;28;20030;-73
2022/02/18 08:38:02;;;;;;;4.18;1.77;;;18.80;65.20;;;;;;5013157;28;20046;-73
2022/02/18 08:40:28;;;;;;;4.97;1.63;;;18.80;65.10;;;;;;5014856;28;20025;-73
2022/02/18 08:42:53;;;;;;;2.88;1.48;;;18.80;65.10;;;;;;5014188;28;20029;-73
2022/02/18 08:45:19;;;;;;;6.10;2.28;;;18.80;65.00;;;;;;5012658;28;20060;-73
2022/02/18 08:47:46;;;;;;;4.00;1.40;;;18.80;65.00;;;;;;5014071;28;20655;-74
2022/02/18 08:50:11;;;;;;;5.10;1.67;;;18.80;65.00;;;;;;5012852;28;20022;-73
2022/02/18 08:52:38;;;;;;;5.57;1.60;;;18.80;65.00;;;;;;5010002;28;20079;-73
2022/02/18 08:55:09;;;;;;;6.18;1.67;;;18.80;65.00;;;;;;5000009;28;20059;-73
2022/02/18 08:57:34;;;;;;;4.57;1.48;;;18.80;65.00;;;;;;5033092;28;20022;-74
2022/02/18 09:00:00;;;;;;;3.75;1.50;;;18.80;64.90;;;;;;5006472;28;20033;-73
2022/02/18 09:02:27;;;;;;;4.95;1.35;;;18.80;64.90;;;;;;4996287;28;20026;-73
2022/02/18 09:04:54;;;;;;;4.90;1.95;;;18.80;64.90;;;;;;5013849;28;20100;-73
2022/02/18 09:07:21;;;;;;;4.65;1.60;;;18.80;64.90;;;;;;4996390;28;20050;-73
2022/02/18 09:09:47;;;;;;;2.80;1.00;;;18.80;64.90;;;;;;4996259;28;20022;-73
2022/02/18 09:12:12;;;;;;;5.00;1.63;;;18.80;64.90;;;;;;5013229;28;20030;-74
2022/02/18 09:14:38;;;;;;;3.38;1.30;;;18.80;64.90;;;;;;5012917;28;20568;-73
2022/02/18 09:17:04;;;;;;;4.45;1.60;;;18.80;64.90;;;;;;5013208;28;20509;-73
2022/02/18 09:19:29;;;;;;;4.13;1.75;;;18.80;64.90;;;;;;5013697;28;20101;-73
2022/02/18 09:21:55;;;;;;;3.80;1.63;;;18.80;64.80;;;;;;5013580;28;20038;-73
2022/02/18 09:24:21;;;;;;;4.78;1.70;;;18.80;64.80;;;;;;5013338;28;20469;-73
2022/02/18 09:26:47;;;;;;;3.63;1.40;;;18.80;64.70;;;;;;5012986;28;20038;-74
2022/02/18 09:29:13;;;;;;;7.28;2.03;;;18.80;64.70;;;;;;5013295;28;20077;-73
2022/02/18 09:31:39;;;;;;;7.75;1.95;;;18.80;64.70;;;;;;5013390;28;20018;-73
2022/02/18 09:34:05;;;;;;;5.65;1.60;;;18.80;64.70;;;;;;5013030;28;20025;-73
2022/02/18 09:36:31;;;;;;;4.20;1.48;;;18.80;64.70;;;;;;4995788;28;20049;-73
2022/02/18 09:38:57;;;;;;;6.35;1.70;;;18.80;64.60;;;;;;4995658;28;20034;-73
2022/02/18 09:41:22;;;;;;;3.92;1.67;;;18.70;64.50;;;;;;5012796;28;20022;-73
2022/02/18 09:43:48;;;;;;;3.10;1.45;;;18.70;64.50;;;;;;4995942;28;20037;-73
2022/02/18 09:46:14;;;;;;;7.25;2.08;;;18.70;64.50;;;;;;4995535;28;20030;-73
2022/02/18 09:48:39;;;;;;;4.70;1.77;;;18.80;64.50;;;;;;4995623;28;20037;-73
2022/02/18 09:51:07;;;;;;;4.47;1.70;;;18.70;64.50;;;;;;4996154;28;20104;-74
2022/02/18 09:53:34;;;;;;;6.45;1.92;;;18.80;64.50;;;;;;5015255;28;20407;-73
2022/02/18 09:56:00;;;;;;;6.07;1.70;;;18.70;64.40;;;;;;5015109;28;20511;-74
2022/02/18 09:58:26;;;;;;;5.55;1.70;;;18.70;64.40;;;;;;5014828;28;20100;-73
2022/02/18 10:00:51;;;;;;;4.50;1.30;;;18.70;64.40;;;;;;5014920;28;20109;-73
2022/02/18 10:03:17;;;;;;;4.07;1.70;;;18.70;64.40;;;;;;5015015;28;20068;-73
2022/02/18 10:05:42;;;;;;;4.25;1.58;;;18.70;65.40;;;;;;4998641;28;20029;-73
2022/02/18 10:08:14;;;;;;;3.13;1.50;;;18.70;64.40;;;;;;5032557;28;20025;-73
2022/02/18 10:10:41;;;;;;;4.30;1.60;;;18.70;64.30;;;;;;5015027;28;20029;-73
2022/02/18 10:13:30;;;;;;;3.83;1.60;;;18.70;64.30;;;;;;5032258;28;20411;-73
2022/02/18 10:15:57;;;;;;;5.00;1.50;;;18.70;64.30;;;;;;5010301;28;20037;-73
2022/02/18 10:18:23;;;;;;;4.30;1.60;;;18.70;64.30;;;;;;5014771;28;20049;-73
2022/02/18 10:20:49;;;;;;;5.80;1.25;;;18.70;64.30;;;;;;4998583;28;20083;-73
2022/02/18 10:23:17;;;;;;;4.95;1.67;;;18.70;64.30;;;;;;5014664;28;20032;-73
2022/02/18 10:25:45;;;;;;;4.85;1.73;;;18.70;64.20;;;;;;5014723;28;20084;-73
2022/02/18 10:28:12;;;;;;;3.95;1.63;;;18.70;64.10;;;;;;4998830;28;20021;-73
2022/02/18 10:30:38;;;;;;;2.30;1.08;;;18.70;64.10;;;;;;5015072;28;20025;-73
2022/02/18 10:33:10;;;;;;;3.50;1.40;;;18.60;64.00;;;;;;5014434;28;20033;-74
2022/02/18 10:35:36;;;;;;;4.57;1.88;;;18.70;64.00;;;;;;5032074;28;20446;-73
2022/02/18 10:38:02;;;;;;;2.63;1.40;;;18.70;64.10;;;;;;5032214;28;20049;-73
2022/02/18 10:40:27;;;;;;;3.92;1.50;;;18.70;64.10;;;;;;5031705;28;20021;-74
2022/02/18 10:42:54;;;;;;;3.97;1.55;;;18.70;64.00;;;;;;5014723;28;20104;-73
2022/02/18 10:45:22;;;;;;;3.75;1.30;;;18.70;64.00;;;;;;5014698;28;20018;-73
2022/02/18 10:47:48;;;;;;;4.93;1.73;;;18.60;65.00;;;;;;4998395;28;20025;-73
2022/02/18 10:50:18;;;;;;;3.35;1.15;;;18.70;64.00;;;;;;5032024;28;20017;-73
2022/02/18 10:53:06;;;;;;;2.80;1.27;;;18.60;63.90;;;;;;4997808;28;20446;-73
2022/02/18 10:55:32;;;;;;;4.10;1.48;;;18.60;63.90;;;;;;5016731;28;20022;-74
2022/02/18 10:58:04;;;;;;;3.17;1.27;;;18.60;63.90;;;;;;4998167;28;20029;-73
2022/02/18 11:00:30;;;;;;;3.53;1.45;;;18.60;63.80;;;;;;5031867;28;20482;-73
2022/02/18 11:02:57;;;;;;;4.30;1.38;;;18.60;63.80;;;;;;5014571;28;20071;-73
2022/02/18 11:05:24;;;;;;;4.78;1.52;;;18.60;63.70;;;;;;5014256;28;20040;-73
2022/02/18 11:07:51;;;;;;;3.60;1.35;;;18.60;63.70;;;;;;5032086;28;20025;-73
2022/02/18 11:10:32;;;;;;;3.42;1.50;;;18.60;63.70;;;;;;5013919;28;20063;-73
2022/02/18 11:12:58;;;;;;;4.47;1.50;;;18.60;63.50;;;;;;5014170;28;20022;-73
2022/02/18 11:15:24;;;;;;;4.40;1.85;;;18.60;63.70;;;;;;5014111;28;20033;-73
2022/02/18 11:17:53;;;;;;;4.13;1.75;;;18.60;63.60;;;;;;5014184;28;20073;-73
2022/02/18 11:20:19;;;;;;;4.38;1.85;;;18.60;63.60;;;;;;5014246;28;20017;-73
2022/02/18 11:22:44;;;;;;;4.30;1.65;;;18.60;63.60;;;;;;5031378;28;20144;-73
2022/02/18 11:25:11;;;;;;;4.47;1.60;;;18.60;63.50;;;;;;5031820;28;20071;-73
2022/02/18 11:27:37;;;;;;;2.90;1.50;;;18.60;63.50;;;;;;5014395;28;20402;-73
2022/02/18 11:30:04;;;;;;;4.65;1.52;;;18.60;63.50;;;;;;5014240;28;20021;-73
2022/02/18 11:32:32;;;;;;;4.85;1.58;;;18.60;63.50;;;;;;5031723;28;20034;-73
2022/02/18 11:35:17;;;;;;;5.15;1.95;;;18.60;63.50;;;;;;5013900;28;20021;-73
2022/02/18 11:37:57;;;;;;;4.65;1.75;;;18.60;63.20;;;;;;5014446;28;20062;-73
2022/02/18 11:40:41;;;;;;;4.43;1.83;;;18.60;63.20;;;;;;5017560;28;20029;-73
2022/02/18 11:43:32;;;;;;;3.28;1.15;;;18.60;63.20;;;;;;5035180;28;20071;-73
2022/02/18 11:46:05;;;;;;;4.75;1.73;;;18.60;63.00;;;;;;5018013;28;20082;-73
2022/02/18 11:48:43;;;;;;;4.70;1.73;;;18.50;63.30;;;;;;5018173;28;20087;-73
2022/02/18 11:51:13;;;;;;;3.42;1.33;;;18.50;63.10;;;;;;5034810;28;20083;-73
2022/02/18 11:53:39;;;;;;;5.85;1.70;;;18.50;63.20;;;;;;5017036;28;20296;-73
2022/02/18 11:56:05;;;;;;;4.15;1.83;;;18.50;63.20;;;;;;5034883;28;20021;-73
2022/02/18 11:58:48;;;;;;;3.47;1.30;;;18.50;63.20;;;;;;5034509;28;20025;-73
2022/02/18 12:01:14;;;;;;;4.20;1.30;;;18.50;63.00;;;;;;5017691;28;20013;-73
2022/02/18 12:03:40;;;;;;;4.72;1.50;;;18.50;63.20;;;;;;5000765;28;20028;-73
2022/02/18 12:06:12;;;;;;;3.88;1.20;;;18.50;63.10;;;;;;5034404;28;20076;-73
2022/02/18 12:08:57;;;;;;;3.58;1.40;;;18.50;63.00;;;;;;5017110;28;20036;-73
2022/02/18 12:11:23;;;;;;;4.43;1.85;;;18.50;62.80;;;;;;5034540;28;20079;-73
2022/02/18 12:14:13;;;;;;;3.20;1.63;;;18.50;63.00;;;;;;5034654;28;20037;-73
2022/02/18 12:16:40;;;;;;;3.15;1.30;;;18.50;62.80;;;;;;5017516;28;20041;-73
2022/02/18 12:19:17;;;;;;;3.13;1.38;;;18.50;63.10;;;;;;5000508;28;20060;-73
2022/02/18 12:21:55;;;;;;;2.95;1.50;;;18.50;62.90;;;;;;5000496;28;20029;-73
2022/02/18 12:24:33;;;;;;;3.10;1.00;;;18.50;62.80;;;;;;5034619;28;20069;-73
2022/02/18 12:27:23;;;;;;;4.45;1.88;;;18.50;62.90;;;;;;5034369;28;20039;-73
2022/02/18 12:29:52;;;;;;;4.72;1.77;;;18.50;62.70;;;;;;5034297;28;20042;-73
2022/02/18 12:32:18;;;;;;;4.53;1.65;;;18.50;62.90;;;;;;5016632;28;20036;-73
2022/02/18 12:34:44;;;;;;;4.07;1.33;;;18.40;62.90;;;;;;5016575;28;20026;-73
2022/02/18 12:37:10;;;;;;;3.90;1.45;;;18.50;62.90;;;;;;5033934;28;20053;-73
2022/02/18 12:39:36;;;;;;;3.00;1.35;;;18.50;62.80;;;;;;5033855;28;20511;-73
2022/02/18 12:42:07;;;;;;;3.78;1.50;;;18.50;62.80;;;;;;5034135;28;20092;-73
2022/02/18 12:44:32;;;;;;;2.50;1.27;;;18.50;62.70;;;;;;5016541;28;20037;-73
2022/02/18 12:46:58;;;;;;;4.32;1.65;;;18.50;62.80;;;;;;5016205;28;20400;-73